createdAt,value
2023-02-07T00:01:41.368Z,0.03
2023-02-07T00:04:09.786Z,-0.06
2023-02-07T00:06:38.640Z,-0.06
2023-02-07T00:09:10.082Z,-0.02
2023-02-07T00:11:40.901Z,-0.07
2023-02-07T00:14:11.463Z,-0.13
2023-02-07T00:16:40.166Z,-0.13
2023-02-07T00:19:09.141Z,-0.26
2023-02-07T00:21:38.126Z,-0.23
2023-02-07T00:24:08.535Z,-0.33
2023-02-07T00:26:37.111Z,-0.36
2023-02-07T00:29:06.517Z,-0.38
2023-02-07T00:31:36.753Z,-0.46
2023-02-07T00:34:08.344Z,-0.44
2023-02-07T00:36:38.678Z,-0.51
2023-02-07T00:39:13.882Z,-0.44
2023-02-07T00:41:42.980Z,-0.54
2023-02-07T00:44:12.599Z,-0.57
2023-02-07T00:46:41.086Z,-0.60
2023-02-07T00:49:10.019Z,-0.60
2023-02-07T00:51:38.966Z,-0.60
2023-02-07T00:54:09.541Z,-0.61
2023-02-07T00:56:37.996Z,-0.66
2023-02-07T00:59:06.487Z,-0.66
2023-02-07T01:01:37.265Z,-0.74
2023-02-07T01:04:06.442Z,-0.78
2023-02-07T01:06:37.089Z,-0.76
2023-02-07T01:09:08.617Z,-0.75
2023-02-07T01:11:37.060Z,-0.80
2023-02-07T01:14:05.349Z,-0.80
2023-02-07T01:16:35.810Z,-0.81
2023-02-07T01:19:06.562Z,-0.88
2023-02-07T01:21:35.347Z,-0.83
2023-02-07T01:24:05.517Z,-0.90
2023-02-07T01:26:38.066Z,-0.91
2023-02-07T01:29:07.024Z,-0.94
2023-02-07T01:31:36.943Z,-0.95
2023-02-07T01:34:05.915Z,-0.98
2023-02-07T01:36:34.313Z,-1.00
2023-02-07T01:39:03.876Z,-1.03
2023-02-07T01:41:37.236Z,-1.09
2023-02-07T01:44:08.906Z,-1.15
2023-02-07T01:46:38.286Z,-1.06
2023-02-07T01:49:13.509Z,-1.13
2023-02-07T01:51:48.544Z,-1.12
2023-02-07T01:54:18.389Z,-1.17
2023-02-07T01:56:55.209Z,-1.21
2023-02-07T01:59:25.720Z,-1.28
2023-02-07T02:01:54.171Z,-1.34
2023-02-07T02:04:22.960Z,-1.34
2023-02-07T02:06:51.695Z,-1.37
2023-02-07T02:09:19.994Z,-1.38
2023-02-07T02:12:13.017Z,-1.37
2023-02-07T02:15:09.025Z,-1.38
2023-02-07T02:17:54.995Z,-1.35
2023-02-07T02:21:16.710Z,-1.43
2023-02-07T02:24:17.581Z,-1.43
2023-02-07T02:26:59.872Z,-1.47
2023-02-07T02:30:33.623Z,-1.53
2023-02-07T02:33:32.227Z,-1.56
2023-02-07T02:36:12.013Z,-1.64
2023-02-07T02:38:47.148Z,-1.63
2023-02-07T02:41:20.563Z,-1.65
2023-02-07T02:43:55.667Z,-1.70
2023-02-07T02:46:26.408Z,-1.76
2023-02-07T02:48:59.507Z,-1.68
2023-02-07T02:51:30.437Z,-1.75
2023-02-07T02:54:01.135Z,-1.79
2023-02-07T02:57:03.905Z,-1.79
2023-02-07T02:59:56.138Z,-1.87
2023-02-07T03:02:34.308Z,-1.90
2023-02-07T03:05:29.631Z,-1.94
2023-02-07T03:08:11.766Z,-1.93
2023-02-07T03:10:50.466Z,-1.95
2023-02-07T03:13:24.768Z,-1.93
2023-02-07T03:16:06.051Z,-1.99
2023-02-07T03:18:46.461Z,-2.05
2023-02-07T03:21:22.261Z,-2.06
2023-02-07T03:23:53.707Z,-2.07
2023-02-07T03:26:25.165Z,-2.10
2023-02-07T03:28:57.678Z,-2.13
2023-02-07T03:31:28.764Z,-2.15
2023-02-07T03:34:04.432Z,-2.20
2023-02-07T03:36:41.623Z,-2.22
2023-02-07T03:39:10.390Z,-2.26
2023-02-07T03:41:45.883Z,-2.24
2023-02-07T03:44:18.152Z,-2.25
2023-02-07T03:46:46.664Z,-2.28
2023-02-07T03:49:17.570Z,-2.25
2023-02-07T03:51:47.796Z,-2.27
2023-02-07T03:54:16.519Z,-2.30
2023-02-07T03:56:45.380Z,-2.32
2023-02-07T03:59:14.064Z,-2.35
2023-02-07T04:01:43.367Z,-2.35
2023-02-07T04:04:12.904Z,-2.40
2023-02-07T04:06:41.768Z,-2.45
2023-02-07T04:09:12.013Z,-2.42
2023-02-07T04:11:40.710Z,-2.48
2023-02-07T04:14:09.159Z,-2.47
2023-02-07T04:16:37.570Z,-2.45
2023-02-07T04:19:06.045Z,-2.41
2023-02-07T04:21:35.048Z,-2.51
2023-02-07T04:24:03.821Z,-2.55
2023-02-07T04:26:33.529Z,-2.57
2023-02-07T04:29:02.556Z,-2.54
2023-02-07T04:31:31.037Z,-2.63
2023-02-07T04:33:59.415Z,-2.63
2023-02-07T04:36:29.555Z,-2.62
2023-02-07T04:38:58.271Z,-2.64
2023-02-07T04:41:26.594Z,-2.61
2023-02-07T04:43:57.068Z,-2.66
2023-02-07T04:46:25.570Z,-2.67
2023-02-07T04:48:54.037Z,-2.67
2023-02-07T04:51:22.398Z,-2.73
2023-02-07T04:53:50.726Z,-2.75
2023-02-07T04:56:19.058Z,-2.78
2023-02-07T04:58:47.931Z,-2.78
2023-02-07T05:01:18.069Z,-2.83
2023-02-07T05:03:46.474Z,-2.74
2023-02-07T05:06:17.748Z,-2.80
2023-02-07T05:08:46.195Z,-2.84
2023-02-07T05:11:15.185Z,-2.91
2023-02-07T05:13:44.040Z,-2.89
2023-02-07T05:16:12.396Z,-2.91
2023-02-07T05:18:42.325Z,-2.95
2023-02-07T05:21:11.411Z,-2.99
2023-02-07T05:23:39.764Z,-3.00
2023-02-07T05:26:08.127Z,-3.03
2023-02-07T05:28:36.480Z,-3.03
2023-02-07T05:31:05.137Z,-3.04
2023-02-07T05:33:32.515Z,-3.09
2023-02-07T05:36:03.036Z,-3.11
2023-02-07T05:38:31.927Z,-3.12
2023-02-07T05:41:00.268Z,-3.15
2023-02-07T05:43:28.870Z,-3.16
2023-02-07T05:45:57.297Z,-3.17
2023-02-07T05:48:25.690Z,-3.20
2023-02-07T05:50:54.145Z,-3.20
2023-02-07T05:53:23.925Z,-3.17
2023-02-07T05:55:53.421Z,-3.21
2023-02-07T05:58:21.723Z,-3.25
2023-02-07T06:00:50.070Z,-3.29
2023-02-07T06:03:18.450Z,-3.30
2023-02-07T06:05:46.780Z,-3.32
2023-02-07T06:08:15.283Z,-3.35
2023-02-07T06:10:44.987Z,-3.34
2023-02-07T06:13:13.510Z,-3.34
2023-02-07T06:15:42.162Z,-3.37
2023-02-07T06:18:10.766Z,-3.38
2023-02-07T06:20:39.205Z,-3.38
2023-02-07T06:23:07.780Z,-3.42
2023-02-07T06:25:36.403Z,-3.44
2023-02-07T06:28:06.645Z,-3.47
2023-02-07T06:30:35.097Z,-3.51
2023-02-07T06:33:03.521Z,-3.50
2023-02-07T06:35:31.842Z,-3.53
2023-02-07T06:38:00.324Z,-3.55
2023-02-07T06:40:28.711Z,-3.53
2023-02-07T06:42:57.200Z,-3.48
2023-02-07T06:45:26.887Z,-3.46
2023-02-07T06:47:55.435Z,-3.45
2023-02-07T06:50:23.911Z,-3.48
2023-02-07T06:52:52.679Z,-3.54
2023-02-07T06:55:20.918Z,-3.57
2023-02-07T06:57:49.419Z,-3.55
2023-02-07T07:00:20.660Z,-3.50
2023-02-07T07:02:50.638Z,-3.52
2023-02-07T07:05:19.394Z,-3.51
2023-02-07T07:07:47.773Z,-3.50
2023-02-07T07:10:16.700Z,-3.46
2023-02-07T07:12:47.367Z,-3.43
2023-02-07T07:15:16.380Z,-3.39
2023-02-07T07:17:44.934Z,-3.38
2023-02-07T07:20:14.799Z,-3.41
2023-02-07T07:22:43.497Z,-3.44
2023-02-07T07:25:12.497Z,-3.40
2023-02-07T07:27:40.897Z,-3.43
2023-02-07T07:30:11.437Z,-3.37
2023-02-07T07:32:40.125Z,-3.32
2023-02-07T07:35:09.400Z,-3.25
2023-02-07T07:37:39.093Z,-3.29
2023-02-07T07:40:08.906Z,-3.29
2023-02-07T07:42:37.478Z,-3.32
2023-02-07T07:45:22.454Z,-3.27
2023-02-07T07:47:51.064Z,-3.30
2023-02-07T07:50:19.903Z,-3.28
2023-02-07T07:52:49.762Z,-3.28
2023-02-07T07:55:18.263Z,-3.24
2023-02-07T07:57:46.803Z,-3.24
2023-02-07T08:00:16.237Z,-3.26
2023-02-07T08:02:44.917Z,-3.24
2023-02-07T08:05:13.948Z,-3.21
2023-02-07T08:07:42.430Z,-3.18
2023-02-07T08:10:12.193Z,-3.17
2023-02-07T08:12:42.652Z,-3.12
2023-02-07T08:15:13.831Z,-3.12
2023-02-07T08:17:42.460Z,-3.11
2023-02-07T08:20:12.556Z,-3.03
2023-02-07T08:22:41.035Z,-2.92
2023-02-07T08:25:11.416Z,-2.92
2023-02-07T08:27:40.470Z,-2.90
2023-02-07T08:30:12.013Z,-2.87
2023-02-07T08:32:41.012Z,-2.86
2023-02-07T08:35:10.378Z,-2.82
2023-02-07T08:37:39.676Z,-2.84
2023-02-07T08:40:11.234Z,-2.84
2023-02-07T08:42:39.627Z,-2.80
2023-02-07T08:45:09.514Z,-2.76
2023-02-07T08:47:38.063Z,-2.75
2023-02-07T08:50:08.103Z,-2.75
2023-02-07T08:52:36.667Z,-2.73
2023-02-07T08:55:05.712Z,-2.74
2023-02-07T08:57:35.558Z,-2.78
2023-02-07T09:00:05.332Z,-2.78
2023-02-07T09:02:34.130Z,-2.68
2023-02-07T09:05:03.117Z,-2.65
2023-02-07T09:07:31.657Z,-2.67
2023-02-07T09:09:59.890Z,-2.60
2023-02-07T09:12:28.224Z,-2.49
2023-02-07T09:14:58.190Z,-2.48
2023-02-07T09:17:26.854Z,-2.33
2023-02-07T09:19:55.392Z,-2.27
2023-02-07T09:22:23.824Z,-2.31
2023-02-07T09:24:52.182Z,-2.28
2023-02-07T09:27:20.614Z,-2.34
2023-02-07T09:29:48.904Z,-2.30
2023-02-07T09:32:18.758Z,-2.25
2023-02-07T09:34:47.191Z,-2.24
2023-02-07T09:37:15.720Z,-2.23
2023-02-07T09:39:44.627Z,-2.20
2023-02-07T09:42:24.243Z,-2.20
2023-02-07T09:45:00.949Z,-2.09
2023-02-07T09:47:32.674Z,-2.03
2023-02-07T09:50:05.049Z,-2.00
2023-02-07T09:52:38.856Z,-1.95
2023-02-07T09:55:16.548Z,-2.00
2023-02-07T09:57:49.412Z,-1.96
2023-02-07T10:00:24.874Z,-1.91
2023-02-07T10:03:00.060Z,-1.80
2023-02-07T10:05:40.284Z,-1.81
2023-02-07T10:08:12.893Z,-1.77
2023-02-07T10:10:46.259Z,-1.76
2023-02-07T10:13:31.065Z,-1.63
2023-02-07T10:16:21.059Z,-1.49
2023-02-07T10:18:56.808Z,-1.56
2023-02-07T10:21:34.765Z,-1.49
2023-02-07T10:24:33.052Z,-1.54
2023-02-07T10:27:10.388Z,-1.50
2023-02-07T10:29:57.768Z,-1.41
2023-02-07T10:32:31.381Z,-1.34
2023-02-07T10:35:06.387Z,-1.33
2023-02-07T10:37:38.657Z,-1.35
2023-02-07T10:40:15.616Z,-1.28
2023-02-07T10:42:49.529Z,-1.16
2023-02-07T10:45:19.712Z,-1.11
2023-02-07T10:47:48.352Z,-1.09
2023-02-07T10:50:29.828Z,-1.04
2023-02-07T10:53:00.713Z,-1.00
2023-02-07T10:55:40.113Z,-0.95
2023-02-07T10:58:22.874Z,-0.81
2023-02-07T11:00:55.013Z,-0.81
2023-02-07T11:03:25.370Z,-0.75
2023-02-07T11:05:59.711Z,-0.61
2023-02-07T11:08:30.612Z,-0.48
2023-02-07T11:11:01.436Z,-0.44
2023-02-07T11:13:32.658Z,-0.43
2023-02-07T11:16:06.145Z,-0.47
2023-02-07T11:18:45.522Z,-0.41
2023-02-07T11:21:32.151Z,-0.36
2023-02-07T11:24:05.543Z,-0.34
2023-02-07T11:26:36.792Z,-0.32
2023-02-07T11:29:15.307Z,-0.26
2023-02-07T11:31:46.163Z,-0.23
2023-02-07T11:34:45.850Z,0.02
2023-02-07T11:37:27.081Z,0.35
2023-02-07T11:39:57.845Z,0.65
2023-02-07T11:42:32.301Z,0.89
2023-02-07T11:45:06.137Z,1.16
2023-02-07T11:47:38.174Z,1.47
2023-02-07T11:50:08.838Z,1.60
2023-02-07T11:52:40.909Z,1.74
2023-02-07T11:55:19.487Z,1.93
2023-02-07T11:57:48.372Z,2.32
2023-02-07T12:00:25.779Z,2.55
2023-02-07T12:03:02.909Z,2.55
2023-02-07T12:05:36.692Z,2.63
2023-02-07T12:08:13.584Z,2.85
2023-02-07T12:10:47.014Z,2.97
2023-02-07T12:13:19.859Z,3.08
2023-02-07T12:15:52.917Z,3.15
2023-02-07T12:18:30.650Z,3.21
2023-02-07T12:21:06.135Z,3.34
2023-02-07T12:23:46.972Z,3.53
2023-02-07T12:26:25.144Z,3.64
2023-02-07T12:29:13.843Z,3.78
2023-02-07T12:31:52.562Z,3.85
2023-02-07T12:34:29.210Z,3.89
2023-02-07T12:37:05.561Z,4.05
2023-02-07T12:39:43.172Z,4.14
2023-02-07T12:42:36.890Z,4.45
2023-02-07T12:45:07.157Z,4.58
2023-02-07T12:47:45.760Z,4.81
2023-02-07T12:50:31.414Z,4.97
2023-02-07T12:53:12.346Z,5.03
2023-02-07T12:55:55.849Z,5.17
2023-02-07T12:58:49.758Z,5.41
2023-02-07T13:01:25.871Z,5.57
2023-02-07T13:04:33.974Z,5.79
2023-02-07T13:07:10.602Z,5.95
2023-02-07T13:09:46.412Z,6.13
2023-02-07T13:12:20.860Z,6.24
2023-02-07T13:15:06.844Z,6.36
2023-02-07T13:17:42.715Z,6.55
2023-02-07T13:20:31.251Z,6.66
2023-02-07T13:23:02.758Z,6.94
2023-02-07T13:25:33.430Z,7.10
2023-02-07T13:28:08.159Z,7.31
2023-02-07T13:30:37.736Z,7.53
2023-02-07T13:33:14.049Z,7.59
2023-02-07T13:35:43.058Z,7.78
2023-02-07T13:38:24.688Z,7.98
2023-02-07T13:41:03.049Z,8.17
2023-02-07T13:43:50.867Z,8.39
2023-02-07T13:46:47.634Z,8.39
2023-02-07T13:49:23.313Z,8.77
2023-02-07T13:52:00.623Z,8.96
2023-02-07T13:54:41.217Z,9.30
2023-02-07T13:57:39.784Z,9.36
2023-02-07T14:00:19.388Z,9.68
2023-02-07T14:02:52.098Z,10.03
2023-02-07T14:05:28.142Z,10.01
2023-02-07T14:08:01.115Z,10.04
2023-02-07T14:10:51.959Z,10.13
2023-02-07T14:13:30.623Z,10.42
2023-02-07T14:16:12.064Z,10.56
2023-02-07T14:18:47.278Z,10.46
2023-02-07T14:21:33.407Z,10.55
2023-02-07T14:24:32.309Z,10.48
2023-02-07T14:27:05.958Z,10.45
2023-02-07T14:29:57.316Z,10.58
2023-02-07T14:33:11.730Z,10.71
2023-02-07T14:36:04.164Z,10.73
2023-02-07T14:38:38.022Z,10.75
2023-02-07T14:41:11.789Z,10.98
2023-02-07T14:44:03.304Z,10.91
2023-02-07T14:46:40.264Z,11.01
2023-02-07T14:49:18.121Z,10.89
2023-02-07T14:51:49.824Z,11.07
2023-02-07T14:54:26.673Z,11.35
2023-02-07T14:57:06.107Z,11.15
2023-02-07T14:59:40.380Z,11.02
2023-02-07T15:02:31.628Z,11.04
2023-02-07T15:05:21.181Z,10.86
2023-02-07T15:07:56.571Z,10.95
2023-02-07T15:10:29.070Z,10.99
2023-02-07T15:12:58.124Z,11.02
2023-02-07T15:15:30.623Z,11.12
2023-02-07T15:18:02.326Z,11.18
2023-02-07T15:20:34.416Z,11.19
2023-02-07T15:23:07.277Z,11.02
2023-02-07T15:25:36.575Z,10.86
2023-02-07T15:28:12.968Z,10.79
2023-02-07T15:31:01.052Z,10.78
2023-02-07T15:33:36.593Z,10.59
2023-02-07T15:36:28.804Z,10.57
2023-02-07T15:39:00.995Z,10.32
2023-02-07T15:41:29.938Z,10.33
2023-02-07T15:44:01.453Z,10.12
2023-02-07T15:46:49.413Z,10.03
2023-02-07T15:49:28.569Z,9.86
2023-02-07T15:52:05.054Z,9.81
2023-02-07T15:54:39.583Z,9.73
2023-02-07T15:57:17.988Z,9.45
2023-02-07T15:59:46.225Z,9.29
2023-02-07T16:02:26.084Z,9.12
2023-02-07T16:04:54.459Z,8.95
2023-02-07T16:07:26.268Z,8.69
2023-02-07T16:09:54.649Z,8.52
2023-02-07T16:12:32.424Z,8.40
2023-02-07T16:15:02.743Z,8.30
2023-02-07T16:17:42.343Z,7.97
2023-02-07T16:20:15.668Z,7.80
2023-02-07T16:22:46.320Z,7.70
2023-02-07T16:25:19.274Z,7.52
2023-02-07T16:27:50.214Z,7.45
2023-02-07T16:30:22.287Z,7.28
2023-02-07T16:32:50.961Z,7.04
2023-02-07T16:35:22.207Z,6.98
2023-02-07T16:37:52.910Z,6.78
2023-02-07T16:40:22.322Z,6.65
2023-02-07T16:42:51.527Z,6.64
2023-02-07T16:45:22.452Z,6.55
2023-02-07T16:47:50.845Z,6.48
2023-02-07T16:50:21.875Z,6.38
2023-02-07T16:52:54.713Z,6.29
2023-02-07T16:55:22.980Z,6.22
2023-02-07T16:57:51.304Z,6.09
2023-02-07T17:00:22.677Z,6.00
2023-02-07T17:02:52.764Z,5.84
2023-02-07T17:05:22.960Z,5.74
2023-02-07T17:07:52.626Z,5.66
2023-02-07T17:10:25.111Z,5.54
2023-02-07T17:12:54.254Z,5.49
2023-02-07T17:15:23.119Z,5.42
2023-02-07T17:17:53.046Z,5.36
2023-02-07T17:20:25.594Z,5.23
2023-02-07T17:22:56.482Z,5.14
2023-02-07T17:25:29.268Z,5.03
2023-02-07T17:27:58.951Z,4.91
2023-02-07T17:30:30.224Z,4.82
2023-02-07T17:32:58.953Z,4.75
2023-02-07T17:35:28.753Z,4.66
2023-02-07T17:38:00.250Z,4.58
2023-02-07T17:40:31.563Z,4.49
2023-02-07T17:43:00.361Z,4.42
2023-02-07T17:45:30.441Z,4.39
2023-02-07T17:47:59.037Z,4.28
2023-02-07T17:50:31.513Z,4.28
2023-02-07T17:53:02.345Z,4.17
2023-02-07T17:55:32.336Z,4.13
2023-02-07T17:58:02.192Z,4.04
2023-02-07T18:00:33.626Z,4.00
2023-02-07T18:03:02.255Z,3.91
2023-02-07T18:05:31.823Z,3.81
2023-02-07T18:08:01.585Z,3.78
2023-02-07T18:10:33.114Z,3.68
2023-02-07T18:13:02.464Z,3.65
2023-02-07T18:15:31.294Z,3.59
2023-02-07T18:17:59.923Z,3.52
2023-02-07T18:20:33.700Z,3.43
2023-02-07T18:23:04.135Z,3.34
2023-02-07T18:25:32.759Z,3.29
2023-02-07T18:28:01.585Z,3.19
2023-02-07T18:30:31.058Z,3.19
2023-02-07T18:33:00.056Z,3.14
2023-02-07T18:35:28.731Z,3.08
2023-02-07T18:37:56.986Z,3.04
2023-02-07T18:40:26.935Z,2.94
2023-02-07T18:42:56.603Z,2.93
2023-02-07T18:45:25.724Z,2.88
2023-02-07T18:47:54.281Z,2.81
2023-02-07T18:50:23.364Z,2.71
2023-02-07T18:52:52.520Z,2.67
2023-02-07T18:55:21.388Z,2.67
2023-02-07T18:57:51.559Z,2.59
2023-02-07T19:00:21.286Z,2.57
2023-02-07T19:02:49.990Z,2.52
2023-02-07T19:05:18.635Z,2.51
2023-02-07T19:07:47.750Z,2.55
2023-02-07T19:10:17.099Z,2.46
2023-02-07T19:12:45.828Z,2.45
2023-02-07T19:15:16.103Z,2.35
2023-02-07T19:17:44.986Z,2.30
2023-02-07T19:20:13.756Z,2.24
2023-02-07T19:22:42.728Z,2.16
2023-02-07T19:25:11.270Z,2.13
2023-02-07T19:27:39.921Z,2.02
2023-02-07T19:30:10.014Z,1.98
2023-02-07T19:32:40.638Z,1.94
2023-02-07T19:35:09.626Z,1.85
2023-02-07T19:37:37.948Z,1.81
2023-02-07T19:40:07.589Z,1.78
2023-02-07T19:42:36.120Z,1.69
2023-02-07T19:45:04.966Z,1.63
2023-02-07T19:47:33.328Z,1.57
2023-02-07T19:50:06.109Z,1.49
2023-02-07T19:52:34.566Z,1.48
2023-02-07T19:55:02.991Z,1.42
2023-02-07T19:57:33.371Z,1.38
2023-02-07T20:00:01.960Z,1.35
2023-02-07T20:02:33.235Z,1.32
2023-02-07T20:05:03.119Z,1.29
2023-02-07T20:07:31.417Z,1.29
2023-02-07T20:10:01.011Z,1.26
2023-02-07T20:12:29.566Z,1.23
2023-02-07T20:14:57.934Z,1.17
2023-02-07T20:17:26.585Z,1.12
2023-02-07T20:19:54.963Z,1.10
2023-02-07T20:22:24.646Z,1.10
2023-02-07T20:24:55.250Z,1.03
2023-02-07T20:27:29.992Z,0.98
2023-02-07T20:29:58.794Z,0.90
2023-02-07T20:32:27.056Z,0.87
2023-02-07T20:34:55.469Z,0.82
2023-02-07T20:37:25.104Z,0.83
2023-02-07T20:39:53.432Z,0.79
2023-02-07T20:42:21.767Z,0.77
2023-02-07T20:44:50.087Z,0.78
2023-02-07T20:47:18.460Z,0.75
2023-02-07T20:49:46.741Z,0.72
2023-02-07T20:52:15.177Z,0.66
2023-02-07T20:54:45.163Z,0.68
2023-02-07T20:57:13.606Z,0.59
2023-02-07T20:59:42.737Z,0.54
2023-02-07T21:02:12.284Z,0.54
2023-02-07T21:04:41.826Z,0.50
2023-02-07T21:07:11.051Z,0.44
2023-02-07T21:09:39.965Z,0.40
2023-02-07T21:12:10.289Z,0.36
2023-02-07T21:14:38.666Z,0.30
2023-02-07T21:17:07.865Z,0.29
2023-02-07T21:19:37.744Z,0.22
2023-02-07T21:22:07.099Z,0.21
2023-02-07T21:24:35.703Z,0.19
2023-02-07T21:27:05.177Z,0.14
2023-02-07T21:29:36.563Z,0.11
2023-02-07T21:32:05.305Z,0.10
2023-02-07T21:34:33.779Z,0.05
2023-02-07T21:37:02.239Z,0.03
2023-02-07T21:39:30.674Z,0.02
2023-02-07T21:41:59.924Z,-0.03
2023-02-07T21:44:29.714Z,-0.02
2023-02-07T21:46:59.502Z,-0.05
2023-02-07T21:49:27.842Z,-0.10
2023-02-07T21:51:56.264Z,-0.13
2023-02-07T21:54:24.787Z,-0.14
2023-02-07T21:56:53.198Z,-0.16
2023-02-07T21:59:22.797Z,-0.17
2023-02-07T22:01:52.138Z,-0.21
2023-02-07T22:04:22.368Z,-0.21
2023-02-07T22:06:51.349Z,-0.23
2023-02-07T22:09:22.495Z,-0.27
2023-02-07T22:11:52.074Z,-0.29
2023-02-07T22:14:21.494Z,-0.35
2023-02-07T22:16:52.406Z,-0.35
2023-02-07T22:19:22.944Z,-0.39
2023-02-07T22:21:51.943Z,-0.42
2023-02-07T22:24:21.780Z,-0.47
2023-02-07T22:26:50.305Z,-0.53
2023-02-07T22:29:18.572Z,-0.57
2023-02-07T22:31:47.108Z,-0.62
2023-02-07T22:34:16.415Z,-0.68
2023-02-07T22:36:47.368Z,-0.71
2023-02-07T22:39:18.211Z,-0.72
2023-02-07T22:41:47.708Z,-0.76
2023-02-07T22:44:16.185Z,-0.77
2023-02-07T22:46:44.681Z,-0.81
2023-02-07T22:49:13.025Z,-0.82
2023-02-07T22:51:41.356Z,-0.88
2023-02-07T22:54:18.296Z,-0.89
2023-02-07T22:56:47.253Z,-0.89
2023-02-07T22:59:15.940Z,-0.93
2023-02-07T23:01:45.353Z,-0.96
2023-02-07T23:04:17.576Z,-1.01
2023-02-07T23:06:46.937Z,-1.03
2023-02-07T23:09:17.207Z,-1.05
2023-02-07T23:11:45.908Z,-1.05
2023-02-07T23:14:16.493Z,-1.11
2023-02-07T23:16:44.838Z,-1.12
2023-02-07T23:19:16.299Z,-1.14
2023-02-07T23:21:45.570Z,-1.17
2023-02-07T23:24:14.295Z,-1.18
2023-02-07T23:26:44.220Z,-1.21
2023-02-07T23:29:12.533Z,-1.25
2023-02-07T23:31:40.854Z,-1.26
2023-02-07T23:34:10.214Z,-1.31
2023-02-07T23:36:39.708Z,-1.32
2023-02-07T23:39:08.471Z,-1.36
2023-02-07T23:41:37.561Z,-1.42
2023-02-07T23:44:07.342Z,-1.44
2023-02-07T23:46:36.249Z,-1.48
2023-02-07T23:49:05.296Z,-1.51
2023-02-07T23:51:33.845Z,-1.53
2023-02-07T23:54:02.884Z,-1.57
2023-02-07T23:56:31.434Z,-1.61
2023-02-07T23:58:59.839Z,-1.63
